Time;durP1;ratioP1;P1;durP2;ratioP2;P2;SDS_P1;SDS_P2;PMS_P1;PMS_P2;Temp;Humidity;BMP_temperature;BMP_pressure;BME280_temperature;BME280_humidity;BME280_pressure;Samples;Min_cycle;Max_cycle;Signal;HPM_P1;HPM_P2
2022/10/05 00:00:21;;;;;;;2.35;1.30;;;;;;;24.20;47.88;97698.81;5032831;28;20466;-28
2022/10/05 00:02:49;;;;;;;2.50;1.20;;;;;;;24.16;47.66;97692.72;5032569;28;20091;-27
2022/10/05 00:05:19;;;;;;;2.15;1.15;;;;;;;24.14;47.72;97691.66;5033067;28;20048;-27
2022/10/05 00:07:44;;;;;;;1.45;1.10;;;;;;;24.16;47.68;97681.63;5032800;28;20096;-27
2022/10/05 00:10:15;;;;;;;1.77;1.10;;;;;;;24.16;47.78;97678.84;5032893;28;20037;-27
2022/10/05 00:12:44;;;;;;;2.47;1.17;;;;;;;24.14;47.65;97683.34;5032810;28;20068;-27
2022/10/05 00:15:11;;;;;;;1.20;0.93;;;;;;;24.14;47.75;97691.66;5032941;28;20025;-27
2022/10/05 00:17:37;;;;;;;2.03;0.93;;;;;;;24.07;47.98;97684.53;5035179;28;20029;-27
2022/10/05 00:20:24;;;;;;;2.15;1.05;;;;;;;24.07;47.83;97692.09;5036816;28;20021;-29
2022/10/05 00:22:57;;;;;;;2.45;1.42;;;;;;;24.10;47.79;97686.34;5036546;28;20021;-27
2022/10/05 00:25:23;;;;;;;1.67;1.00;;;;;;;24.09;47.82;97693.16;5036735;28;20076;-27
2022/10/05 00:27:57;;;;;;;2.35;1.27;;;;;;;24.07;47.96;97689.31;5036678;28;20436;-27
2022/10/05 00:30:27;;;;;;;2.42;1.40;;;;;;;24.08;47.91;97699.94;5036794;28;20527;-27
2022/10/05 00:32:53;;;;;;;3.20;1.00;;;;;;;24.10;47.74;97699.44;5036343;28;20527;-29
2022/10/05 00:35:19;;;;;;;2.67;1.38;;;;;;;24.13;47.92;97687.38;5036474;28;20021;-27
2022/10/05 00:37:46;;;;;;;1.40;1.13;;;;;;;24.05;48.16;97684.28;5036439;28;20026;-27
2022/10/05 00:40:40;;;;;;;2.22;1.15;;;;;;;24.08;48.20;97688.84;5035575;28;20045;-27
2022/10/05 00:43:28;;;;;;;3.10;1.30;;;;;;;24.07;48.18;97689.31;5034734;28;20041;-28
2022/10/05 00:46:06;;;;;;;1.88;1.35;;;;;;;24.09;48.23;97684.81;5035728;28;20047;-27
2022/10/05 00:49:05;;;;;;;3.88;1.20;;;;;;;24.09;48.38;97687.59;5035075;28;20050;-27
2022/10/05 00:51:40;;;;;;;1.80;1.20;;;;;;;24.12;48.49;97686.59;5034032;28;20038;-27
2022/10/05 00:54:35;;;;;;;2.85;1.33;;;;;;;24.08;48.53;97691.63;5034118;28;20045;-27
2022/10/05 00:57:26;;;;;;;2.47;0.98;;;;;;;24.11;48.44;97687.84;5033980;28;20034;-27
2022/10/05 01:00:11;;;;;;;2.70;1.73;;;;;;;24.11;48.54;97687.13;5012911;28;20123;-27
2022/10/05 01:03:03;;;;;;;1.90;1.00;;;;;;;24.03;48.59;97689.53;5033951;28;20071;-27
2022/10/05 01:05:50;;;;;;;4.30;1.27;;;;;;;24.08;48.90;97688.84;5033910;28;20045;-27
2022/10/05 01:08:29;;;;;;;2.35;1.10;;;;;;;24.08;48.79;97696.41;5034122;28;20037;-27
2022/10/05 01:11:06;;;;;;;1.33;0.80;;;;;;;24.07;48.72;97690.09;5034216;28;20125;-27
2022/10/05 01:13:54;;;;;;;3.25;1.20;;;;;;;24.07;48.95;97690.09;5033513;28;20116;-27
2022/10/05 01:16:52;;;;;;;2.08;1.10;;;;;;;24.00;49.17;97685.72;5033403;28;20394;-27
2022/10/05 01:19:44;;;;;;;2.17;1.20;;;;;;;24.05;48.95;97694.59;5013995;28;20088;-27
2022/10/05 01:22:42;;;;;;;4.15;1.23;;;;;;;24.03;48.96;97688.78;5033601;28;20064;-28
2022/10/05 01:25:26;;;;;;;3.22;1.13;;;;;;;24.04;48.95;97693.06;5032439;28;20222;-27
2022/10/05 01:28:17;;;;;;;2.85;1.10;;;;;;;24.03;49.11;97694.31;5033690;28;20047;-27
2022/10/05 01:31:02;;;;;;;2.58;1.17;;;;;;;24.03;48.97;97688.78;5035495;28;20082;-27
2022/10/05 01:33:36;;;;;;;1.60;1.02;;;;;;;24.02;48.91;97690.78;5035204;28;20029;-27
2022/10/05 01:36:16;;;;;;;2.65;1.33;;;;;;;24.06;48.76;97690.56;5035755;28;20029;-28
2022/10/05 01:38:48;;;;;;;2.17;1.20;;;;;;;23.97;49.27;97689.47;5035082;28;20132;-27
2022/10/05 01:41:32;;;;;;;2.67;1.23;;;;;;;23.97;49.01;97686.72;5035747;28;20434;-28
2022/10/05 01:44:15;;;;;;;2.40;1.30;;;;;;;24.01;48.89;97683.72;5035425;28;20029;-27
2022/10/05 01:47:13;;;;;;;1.98;1.25;;;;;;;23.99;48.99;97678.66;5035105;28;20113;-27
2022/10/05 01:50:16;;;;;;;3.38;1.30;;;;;;;23.97;48.90;97680.41;5034902;28;20484;-27
2022/10/05 01:52:55;;;;;;;1.90;1.05;;;;;;;24.01;48.57;97680.94;5033112;28;20176;-27
2022/10/05 01:55:39;;;;;;;5.30;1.60;;;;;;;23.99;48.66;97684.19;5034894;28;20029;-27
2022/10/05 01:58:23;;;;;;;1.30;0.95;;;;;;;23.97;48.75;97683.94;5035272;28;20065;-27
2022/10/05 02:01:01;;;;;;;2.90;1.20;;;;;;;23.89;48.81;97685.59;5034780;28;20021;-27
2022/10/05 02:03:32;;;;;;;2.60;1.30;;;;;;;23.94;48.77;97682.13;5035061;28;20021;-27
2022/10/05 02:06:05;;;;;;;2.75;1.50;;;;;;;23.91;48.71;97677.56;5034787;28;20021;-27
2022/10/05 02:08:37;;;;;;;1.42;1.10;;;;;;;23.88;48.92;97683.28;5034749;28;20049;-29
2022/10/05 02:11:07;;;;;;;2.90;1.10;;;;;;;23.91;48.90;97685.88;5034815;28;20037;-27
2022/10/05 02:13:49;;;;;;;3.47;1.13;;;;;;;23.96;48.87;97684.41;5034627;28;20044;-27
2022/10/05 02:16:27;;;;;;;3.28;1.08;;;;;;;23.95;48.54;97680.88;5034615;28;20033;-27
2022/10/05 02:19:07;;;;;;;4.10;1.30;;;;;;;23.91;48.54;97683.09;5034530;28;20029;-27
2022/10/05 02:21:35;;;;;;;2.47;1.48;;;;;;;23.97;48.50;97688.72;5034778;28;20385;-27
2022/10/05 02:24:06;;;;;;;2.53;1.35;;;;;;;23.90;48.41;97683.56;5034630;28;20037;-27
2022/10/05 02:26:34;;;;;;;2.85;1.10;;;;;;;23.87;48.37;97682.53;5033382;28;20036;-27
2022/10/05 02:29:03;;;;;;;2.50;1.33;;;;;;;23.95;47.97;97683.66;5034329;28;20088;-27
2022/10/05 02:31:46;;;;;;;2.30;1.23;;;;;;;23.85;48.37;97679.50;5033154;28;20474;-29
2022/10/05 02:34:26;;;;;;;2.10;1.33;;;;;;;23.87;48.43;97673.47;5034233;28;20036;-27
2022/10/05 02:37:11;;;;;;;2.08;1.23;;;;;;;23.89;48.12;97679.28;5034155;28;20497;-27
2022/10/05 02:40:14;;;;;;;2.78;1.13;;;;;;;23.89;48.14;97685.59;5033437;28;20486;-27
2022/10/05 02:42:55;;;;;;;3.53;1.25;;;;;;;23.81;48.05;97670.63;5034005;28;20045;-28
2022/10/05 02:45:39;;;;;;;2.30;1.25;;;;;;;23.84;48.31;97677.97;5034106;28;20104;-27
2022/10/05 02:48:13;;;;;;;2.10;1.30;;;;;;;23.86;48.37;97674.72;5034334;28;20072;-27
2022/10/05 02:50:51;;;;;;;3.80;1.60;;;;;;;23.90;48.21;97673.25;5033730;28;20033;-27
2022/10/05 02:53:30;;;;;;;2.70;1.15;;;;;;;23.87;48.05;97679.75;5033920;28;20355;-27
2022/10/05 02:56:16;;;;;;;1.90;1.50;;;;;;;23.86;48.12;97672.69;5034062;28;20025;-28
2022/10/05 02:58:50;;;;;;;3.20;1.50;;;;;;;23.79;48.20;97677.91;5033912;28;20033;-27
2022/10/05 03:01:25;;;;;;;2.15;1.17;;;;;;;23.73;48.27;97680.63;5033963;28;20056;-27
2022/10/05 03:04:10;;;;;;;2.38;1.52;;;;;;;23.71;48.50;97672.03;5034044;28;20469;-27
2022/10/05 03:07:01;;;;;;;2.80;1.20;;;;;;;23.78;48.30;97671.59;5033811;28;20481;-27
2022/10/05 03:09:35;;;;;;;2.42;1.40;;;;;;;23.78;48.39;97668.81;5033778;28;20033;-27
2022/10/05 03:12:23;;;;;;;2.05;1.35;;;;;;;23.76;48.29;97660.25;5033698;28;20063;-27
2022/10/05 03:15:02;;;;;;;2.42;1.40;;;;;;;23.74;48.55;97668.25;5033674;28;20442;-28
2022/10/05 03:17:36;;;;;;;1.92;1.35;;;;;;;23.78;48.35;97670.84;5033766;28;20104;-27
2022/10/05 03:20:04;;;;;;;2.83;1.23;;;;;;;23.74;48.22;97673.81;5033838;28;20032;-27
2022/10/05 03:22:39;;;;;;;3.22;1.40;;;;;;;23.80;48.30;97671.13;5033557;28;20528;-27
2022/10/05 03:25:23;;;;;;;3.35;1.42;;;;;;;23.76;48.11;97676.84;5033648;28;20394;-27
2022/10/05 03:27:48;;;;;;;1.95;1.35;;;;;;;23.68;48.57;97675.75;5033344;28;20470;-27
2022/10/05 03:30:22;;;;;;;2.58;1.40;;;;;;;23.72;48.51;97676.31;5033575;28;20047;-27
2022/10/05 03:32:56;;;;;;;2.60;1.60;;;;;;;23.75;48.47;97669.78;5033226;28;20027;-27
2022/10/05 03:35:43;;;;;;;3.10;1.50;;;;;;;23.75;47.98;97675.31;5033388;28;20434;-27
2022/10/05 03:38:22;;;;;;;2.60;1.40;;;;;;;23.72;47.94;97668.00;5032935;28;20025;-27
2022/10/05 03:41:30;;;;;;;3.03;1.42;;;;;;;23.76;47.73;97663.00;5033492;28;20023;-28
2022/10/05 03:44:08;;;;;;;2.28;1.40;;;;;;;23.72;47.94;97670.78;5031383;28;20108;-27
2022/10/05 03:46:52;;;;;;;1.70;1.35;;;;;;;23.69;47.85;97674.50;5031298;28;20045;-28
2022/10/05 03:49:29;;;;;;;2.17;1.42;;;;;;;23.66;48.08;97672.69;5030985;28;20433;-28
2022/10/05 03:52:16;;;;;;;2.50;1.52;;;;;;;23.73;47.69;97675.06;5033980;28;20051;-27
2022/10/05 03:54:55;;;;;;;2.13;1.40;;;;;;;23.66;47.96;97683.78;5035201;28;20067;-27
2022/10/05 03:57:27;;;;;;;3.40;1.42;;;;;;;23.66;47.71;97683.78;5035110;28;20026;-28
2022/10/05 04:00:03;;;;;;;2.27;1.80;;;;;;;23.71;47.71;97679.56;5035130;28;20060;-27
2022/10/05 04:02:44;;;;;;;2.72;1.60;;;;;;;23.69;47.78;97682.81;5035391;28;20033;-27
2022/10/05 04:05:11;;;;;;;3.67;1.73;;;;;;;23.59;48.00;97682.19;5034957;28;20088;-27
2022/10/05 04:07:50;;;;;;;1.63;1.42;;;;;;;23.63;47.85;97673.66;5034864;28;20048;-28
2022/10/05 04:10:38;;;;;;;3.67;1.85;;;;;;;23.60;48.18;97674.66;5035104;28;20025;-28
2022/10/05 04:13:14;;;;;;;3.15;1.60;;;;;;;23.64;47.65;97667.66;5018362;28;20382;-27
2022/10/05 04:15:51;;;;;;;2.35;1.58;;;;;;;23.68;47.87;97670.22;5034794;28;20079;-27
2022/10/05 04:18:35;;;;;;;2.80;1.80;;;;;;;23.58;47.81;97660.53;5036304;28;20375;-28
2022/10/05 04:21:10;;;;;;;3.00;2.00;;;;;;;23.56;48.34;97668.53;5035473;28;20115;-28
2022/10/05 04:23:39;;;;;;;3.13;1.80;;;;;;;23.51;48.03;97666.44;5036805;28;20013;-27
2022/10/05 04:26:19;;;;;;;4.25;1.60;;;;;;;23.48;48.27;97684.78;5036600;28;20097;-27
2022/10/05 04:28:50;;;;;;;2.38;1.70;;;;;;;23.55;47.76;97678.84;5035367;28;20029;-28
2022/10/05 04:31:59;;;;;;;3.67;1.95;;;;;;;23.50;48.16;97681.50;5036465;28;20021;-28
2022/10/05 04:34:56;;;;;;;4.50;2.08;;;;;;;23.51;47.87;97683.84;5036102;28;20065;-27
2022/10/05 04:37:38;;;;;;;3.38;1.92;;;;;;;23.57;47.51;97679.13;5035163;28;20025;-27
2022/10/05 04:40:28;;;;;;;3.23;2.07;;;;;;;23.51;48.04;97683.06;5036168;28;20049;-27
2022/10/05 04:43:09;;;;;;;4.45;2.05;;;;;;;23.50;47.99;97685.06;5035155;28;20043;-27
2022/10/05 04:46:06;;;;;;;4.50;1.88;;;;;;;23.47;47.71;97685.25;5036504;28;20025;-28
2022/10/05 04:49:04;;;;;;;4.50;2.10;;;;;;;23.41;48.01;97690.72;5035546;28;20037;-28
2022/10/05 04:51:34;;;;;;;2.45;1.80;;;;;;;23.40;48.16;97693.97;5036363;28;20421;-27
2022/10/05 04:54:38;;;;;;;2.28;1.80;;;;;;;23.46;47.84;97681.72;5036621;28;20424;-27
2022/10/05 04:57:15;;;;;;;4.05;2.10;;;;;;;23.48;47.50;97681.25;5036135;28;20044;-27
2022/10/05 05:00:03;;;;;;;2.47;1.70;;;;;;;23.42;47.86;97688.72;5036352;28;20025;-27
2022/10/05 05:02:37;;;;;;;3.35;2.20;;;;;;;23.48;47.56;97690.31;5035399;28;20025;-27
2022/10/05 05:05:13;;;;;;;2.30;1.80;;;;;;;23.51;47.20;97694.13;5035962;28;20462;-27
2022/10/05 05:07:54;;;;;;;3.00;1.88;;;;;;;23.48;47.16;97692.31;5035930;28;20025;-27
2022/10/05 05:10:31;;;;;;;3.17;1.77;;;;;;;23.52;47.11;97690.91;5034640;28;20318;-27
2022/10/05 05:13:15;;;;;;;5.03;1.92;;;;;;;23.47;47.50;97699.88;5035636;28;20028;-27
2022/10/05 05:15:59;;;;;;;2.53;1.85;;;;;;;23.45;47.37;97702.34;5035684;28;20029;-27
2022/10/05 05:18:44;;;;;;;4.07;2.08;;;;;;;23.48;47.11;97697.88;5035741;28;20029;-27
2022/10/05 05:21:43;;;;;;;3.38;1.88;;;;;;;23.50;47.22;97698.13;5035964;28;20075;-28
2022/10/05 05:24:15;;;;;;;4.40;2.00;;;;;;;23.41;47.68;97701.78;5035571;28;20462;-27
2022/10/05 05:27:05;;;;;;;4.13;2.17;;;;;;;23.51;47.09;97697.69;5035640;28;20036;-27
2022/10/05 05:29:40;;;;;;;2.42;1.60;;;;;;;23.57;47.08;97698.53;5035588;28;20028;-27
2022/10/05 05:32:16;;;;;;;3.50;1.60;;;;;;;23.45;47.45;97712.66;5035494;28;20459;-27
2022/10/05 05:34:44;;;;;;;2.83;2.00;;;;;;;23.43;47.53;97706.84;5035626;28;20075;-27
2022/10/05 05:37:25;;;;;;;2.63;1.63;;;;;;;23.54;47.28;97707.03;5035296;28;20096;-27
2022/10/05 05:39:53;;;;;;;4.68;2.10;;;;;;;23.49;47.52;97700.13;5035117;28;20061;-28
2022/10/05 05:42:42;;;;;;;3.85;2.15;;;;;;;23.46;47.57;97703.13;5035633;28;20025;-27
2022/10/05 05:45:37;;;;;;;4.00;2.22;;;;;;;23.42;47.55;97705.31;5035100;28;20053;-27
2022/10/05 05:48:27;;;;;;;3.10;1.85;;;;;;;23.41;47.58;97706.56;5034317;28;20065;-28
2022/10/05 05:51:09;;;;;;;5.68;2.20;;;;;;;23.47;47.23;97713.72;5035086;28;20025;-27
2022/10/05 05:53:37;;;;;;;4.22;2.05;;;;;;;23.48;47.18;97703.41;5035088;28;20048;-28
2022/10/05 05:56:11;;;;;;;3.58;1.98;;;;;;;23.49;47.00;97702.91;5034954;28;20487;-28
2022/10/05 05:58:45;;;;;;;3.58;2.05;;;;;;;23.40;47.38;97699.50;5035352;28;20041;-29
2022/10/05 06:01:23;;;;;;;5.60;2.30;;;;;;;23.51;46.92;97705.97;5034906;28;20026;-28
2022/10/05 06:03:57;;;;;;;3.47;2.00;;;;;;;23.51;47.05;97703.22;5034947;28;20555;-27
2022/10/05 06:06:34;;;;;;;5.43;2.15;;;;;;;23.44;47.38;97711.91;5034679;28;20107;-27
2022/10/05 06:09:09;;;;;;;3.65;2.17;;;;;;;23.41;47.32;97712.09;5034937;28;20040;-28
2022/10/05 06:11:51;;;;;;;4.53;2.17;;;;;;;23.50;47.24;97725.81;5034987;28;20029;-27
2022/10/05 06:14:21;;;;;;;2.92;2.08;;;;;;;23.47;47.35;97724.03;5033775;28;20029;-27
2022/10/05 06:17:16;;;;;;;6.78;3.35;;;;;;;23.46;47.26;97730.81;5034838;28;20120;-27
2022/10/05 06:19:44;;;;;;;5.20;2.15;;;;;;;23.52;47.34;97723.34;5034414;28;20063;-27
2022/10/05 06:22:31;;;;;;;3.55;1.95;;;;;;;23.52;47.17;97724.13;5034440;28;20454;-27
2022/10/05 06:25:08;;;;;;;4.15;2.30;;;;;;;23.48;47.20;97723.56;5034613;28;20049;-28
2022/10/05 06:27:36;;;;;;;4.07;1.90;;;;;;;23.51;47.32;97717.06;5034416;28;20032;-27
2022/10/05 06:30:15;;;;;;;5.30;2.35;;;;;;;23.56;47.36;97718.38;5034324;28;20091;-27
2022/10/05 06:33:08;;;;;;;6.35;2.90;;;;;;;23.52;47.51;97720.59;5034129;28;20049;-27
2022/10/05 06:35:52;;;;;;;3.90;2.10;;;;;;;23.57;47.18;97719.91;5034356;28;20033;-27
2022/10/05 06:38:48;;;;;;;5.78;2.65;;;;;;;23.58;47.49;97722.22;5034068;28;20045;-27
2022/10/05 06:41:30;;;;;;;3.50;2.40;;;;;;;23.56;47.34;97721.16;5034170;28;20064;-27
2022/10/05 06:44:36;;;;;;;4.13;2.50;;;;;;;23.56;47.41;97719.16;5034265;28;20116;-27
2022/10/05 06:47:22;;;;;;;5.55;2.92;;;;;;;23.56;47.39;97724.69;5034003;28;20067;-27
2022/10/05 06:50:12;;;;;;;4.63;2.50;;;;;;;23.57;47.51;97723.44;5034026;28;20033;-28
2022/10/05 06:52:48;;;;;;;2.80;2.30;;;;;;;23.57;47.38;97722.69;5033835;28;20022;-27
2022/10/05 06:55:36;;;;;;;4.30;2.22;;;;;;;23.56;47.52;97723.94;5033873;28;20386;-27
2022/10/05 06:58:20;;;;;;;5.40;2.90;;;;;;;23.55;47.79;97722.41;5033832;28;20025;-28
2022/10/05 07:00:53;;;;;;;3.95;2.20;;;;;;;23.52;47.61;97726.13;5032873;28;20029;-27
2022/10/05 07:03:27;;;;;;;2.25;2.05;;;;;;;23.54;47.53;97726.41;5018970;28;20025;-27
2022/10/05 07:06:01;;;;;;;3.97;2.42;;;;;;;23.55;47.61;97727.94;5030507;28;20043;-28
2022/10/05 07:08:45;;;;;;;4.20;2.30;;;;;;;23.55;47.66;97733.47;5019787;28;20042;-28
2022/10/05 07:11:55;;;;;;;3.50;2.38;;;;;;;23.55;47.72;97739.00;5011999;28;20112;-28
2022/10/05 07:14:35;;;;;;;4.25;2.53;;;;;;;23.55;48.04;97744.56;5011412;28;20046;-27
2022/10/05 07:17:26;;;;;;;3.80;2.20;;;;;;;23.59;47.81;97739.59;5011851;28;20064;-27
2022/10/05 07:20:20;;;;;;;3.60;2.28;;;;;;;23.60;48.09;97746.66;5017596;28;20063;-27
2022/10/05 07:22:48;;;;;;;4.00;2.17;;;;;;;23.60;48.01;97747.41;5020416;28;20026;-27
2022/10/05 07:25:22;;;;;;;3.38;2.22;;;;;;;23.59;48.41;97750.66;5011564;28;20426;-27
2022/10/05 07:28:07;;;;;;;4.50;2.35;;;;;;;23.52;48.70;97756.59;5010873;28;20125;-27
2022/10/05 07:30:46;;;;;;;3.53;2.10;;;;;;;23.59;48.46;97761.75;5011836;28;20029;-27
2022/10/05 07:33:20;;;;;;;3.53;1.92;;;;;;;23.58;48.57;97754.69;5011843;28;20022;-28
2022/10/05 07:39:00;;;;;;;3.17;1.60;;;;;;;23.53;49.44;97758.88;5011494;28;20131;-27
2022/10/05 07:41:51;;;;;;;3.58;1.80;;;;;;;23.55;49.07;97761.16;5011604;28;20163;-27
2022/10/05 07:44:29;;;;;;;4.30;1.92;;;;;;;23.54;49.03;97754.09;5013724;28;20042;-27
2022/10/05 07:47:02;;;;;;;2.38;1.92;;;;;;;23.48;49.92;97767.09;5011722;28;20391;-27
2022/10/05 07:49:52;;;;;;;2.55;1.98;;;;;;;23.41;50.50;97764.69;5018967;28;20028;-27
2022/10/05 07:52:32;;;;;;;4.60;2.00;;;;;;;23.51;50.20;97766.13;5031157;28;20057;-29
2022/10/05 07:55:00;;;;;;;2.95;1.80;;;;;;;23.49;50.36;97760.31;5012450;28;20038;-27
2022/10/05 07:57:29;;;;;;;2.95;1.75;;;;;;;23.46;50.58;97769.56;5024455;28;20386;-27
2022/10/05 08:00:12;;;;;;;2.63;1.80;;;;;;;23.50;50.56;97775.66;5031107;28;20025;-27
2022/10/05 08:03:09;;;;;;;2.17;1.70;;;;;;;23.49;50.55;97768.63;5030411;28;20057;-27
2022/10/05 08:05:40;;;;;;;2.78;1.65;;;;;;;23.51;50.68;97763.38;5029777;28;20034;-28
2022/10/05 08:08:20;;;;;;;2.60;1.70;;;;;;;23.50;50.92;97770.91;5031189;28;20021;-27
2022/10/05 08:11:01;;;;;;;3.15;1.50;;;;;;;23.50;50.67;97770.13;5031089;28;20025;-27
2022/10/05 08:13:38;;;;;;;3.25;1.45;;;;;;;23.60;50.26;97761.25;5030699;28;20028;-27
2022/10/05 08:16:11;;;;;;;3.20;1.40;;;;;;;23.67;50.25;97773.16;5031030;28;20047;-27
2022/10/05 08:18:55;;;;;;;;;;;;;;;23.60;50.85;97768.81;5031590;28;20057;-29
2022/10/05 08:21:30;;;;;;;1.83;1.38;;;;;;;23.63;50.47;97776.13;5029758;28;20332;-27
2022/10/05 08:24:13;;;;;;;2.85;1.30;;;;;;;23.57;50.93;97775.31;5031117;28;20026;-27
2022/10/05 08:26:44;;;;;;;2.30;1.40;;;;;;;23.62;51.02;97782.91;5030771;28;20109;-27
2022/10/05 08:29:28;;;;;;;1.73;1.27;;;;;;;23.45;51.34;97779.88;5030962;28;20037;-28
2022/10/05 08:32:11;;;;;;;4.15;1.60;;;;;;;23.50;51.20;97793.06;5030761;28;20021;-27
2022/10/05 08:34:44;;;;;;;3.00;1.70;;;;;;;23.62;51.41;97794.75;5030872;28;20048;-28
2022/10/05 08:37:19;;;;;;;1.75;1.50;;;;;;;23.50;51.58;97795.81;5030694;28;20294;-27
2022/10/05 08:40:14;;;;;;;2.75;1.30;;;;;;;23.42;53.18;97800.22;5034362;28;20124;-27
2022/10/05 08:43:00;;;;;;;2.97;1.50;;;;;;;23.55;51.55;97805.47;5024427;28;20355;-27
2022/10/05 08:46:03;;;;;;;2.75;1.75;;;;;;;23.44;53.50;97796.97;5016796;28;20026;-26
2022/10/05 08:48:51;;;;;;;1.80;1.60;;;;;;;23.42;52.11;97805.75;5016725;28;20041;-27
2022/10/05 08:51:34;;;;;;;2.17;1.35;;;;;;;23.33;52.02;97808.63;5015802;28;20120;-27
2022/10/05 08:54:27;;;;;;;2.03;1.25;;;;;;;23.42;52.78;97816.06;5016443;28;20075;-27
2022/10/05 08:57:11;;;;;;;2.30;1.80;;;;;;;23.41;52.55;97811.75;5016460;28;20541;-27
2022/10/05 09:00:04;;;;;;;5.35;2.20;;;;;;;22.61;56.83;97813.59;5016088;28;20063;-28
2022/10/05 09:02:59;;;;;;;4.93;2.10;;;;;;;22.97;56.38;97812.53;5016284;28;20100;-28
2022/10/05 09:05:58;;;;;;;3.00;2.35;;;;;;;23.24;54.86;97812.25;5006295;28;20044;-27
2022/10/05 09:08:54;;;;;;;2.42;1.73;;;;;;;23.30;54.32;97817.88;5016150;28;20494;-28
2022/10/05 09:11:34;;;;;;;3.60;1.98;;;;;;;23.17;55.48;97820.94;5015917;28;20037;-27
2022/10/05 09:14:33;;;;;;;2.92;1.50;;;;;;;23.35;53.48;97822.00;5015972;28;20018;-27
2022/10/05 09:17:12;;;;;;;2.42;1.70;;;;;;;23.46;53.48;97827.72;5016126;28;20021;-28
2022/10/05 09:19:38;;;;;;;3.63;1.58;;;;;;;23.52;52.66;97818.25;5016018;28;20466;-28
2022/10/05 09:22:03;;;;;;;2.88;1.77;;;;;;;23.53;53.48;97824.56;5020597;28;20025;-27
2022/10/05 09:25:04;;;;;;;2.78;1.92;;;;;;;23.50;53.02;97828.25;5031752;28;20438;-27
2022/10/05 09:27:36;;;;;;;3.05;1.50;;;;;;;23.49;54.22;97824.00;5033756;28;20033;-27
2022/10/05 09:30:20;;;;;;;4.00;2.33;;;;;;;23.05;56.43;97833.06;5033846;28;20100;-27
2022/10/05 09:33:04;;;;;;;2.88;1.95;;;;;;;22.74;57.34;97833.47;5032171;28;20270;-27
2022/10/05 09:36:14;;;;;;;2.47;1.70;;;;;;;23.29;55.48;97844.78;5033279;28;20064;-27
2022/10/05 09:39:02;;;;;;;4.03;1.95;;;;;;;23.31;54.57;97838.03;5032144;28;20386;-27
2022/10/05 09:41:49;;;;;;;4.38;2.10;;;;;;;23.25;54.41;97827.59;5033400;28;20775;-27
2022/10/05 09:44:33;;;;;;;3.13;1.70;;;;;;;23.22;54.87;97836.13;5033401;28;20068;-27
2022/10/05 09:47:30;;;;;;;3.13;1.50;;;;;;;23.52;53.15;97839.66;5032943;28;20037;-27
2022/10/05 09:50:33;;;;;;;3.00;1.60;;;;;;;23.60;53.10;97835.28;5033174;28;20044;-28
2022/10/05 09:53:16;;;;;;;2.83;2.03;;;;;;;23.21;54.87;97832.59;5033286;28;20034;-27
2022/10/05 09:56:10;;;;;;;1.92;1.50;;;;;;;23.55;52.88;97844.25;5033138;28;20035;-28
2022/10/05 09:58:41;;;;;;;1.70;1.50;;;;;;;23.71;52.34;97840.97;5033059;28;20140;-28
2022/10/05 10:01:40;;;;;;;3.78;1.60;;;;;;;23.73;51.94;97838.50;5033085;28;20044;-29
2022/10/05 10:04:36;;;;;;;2.42;1.52;;;;;;;23.72;51.91;97841.75;5032896;28;20143;-27
2022/10/05 10:07:35;;;;;;;1.83;1.48;;;;;;;23.63;52.30;97850.91;5032938;28;20112;-27
2022/10/05 10:10:30;;;;;;;1.80;1.40;;;;;;;23.76;51.79;97843.06;5032655;28;20040;-27
2022/10/05 10:13:17;;;;;;;2.38;1.42;;;;;;;23.74;51.83;97855.88;5032613;28;20406;-27
2022/10/05 10:15:57;;;;;;;2.47;1.50;;;;;;;23.79;51.63;97853.19;5032823;28;20091;-27
2022/10/05 10:18:56;;;;;;;2.20;1.45;;;;;;;23.80;51.77;97853.94;5032709;28;20034;-27
2022/10/05 10:21:41;;;;;;;3.08;2.30;;;;;;;23.71;52.20;97840.97;5019471;28;20060;-27
2022/10/05 10:24:34;;;;;;;2.90;1.65;;;;;;;23.73;52.06;97851.59;5030989;28;20021;-28
2022/10/05 10:27:41;;;;;;;2.17;1.63;;;;;;;23.73;51.90;97841.28;5017143;28;20132;-27
2022/10/05 10:30:34;;;;;;;1.73;1.40;;;;;;;23.70;51.89;97845.00;5010251;28;20120;-27
2022/10/05 10:33:33;;;;;;;2.50;1.35;;;;;;;23.79;51.61;97853.19;5010258;28;20057;-27
2022/10/05 10:36:01;;;;;;;2.22;1.83;;;;;;;23.83;51.55;97858.53;5010075;28;20041;-29
2022/10/05 10:38:46;;;;;;;2.53;1.63;;;;;;;23.72;51.70;97856.34;5017659;28;20061;-29
2022/10/05 10:41:48;;;;;;;2.42;1.45;;;;;;;23.74;51.72;97853.84;5013244;28;20167;-29
2022/10/05 10:44:36;;;;;;;2.07;1.47;;;;;;;23.75;51.50;97847.06;5029760;28;20037;-27
2022/10/05 10:47:07;;;;;;;2.42;1.30;;;;;;;23.76;51.38;97847.84;5029469;28;20032;-28
2022/10/05 10:50:05;;;;;;;4.03;1.90;;;;;;;23.73;51.40;97854.34;5029549;28;20896;-28
2022/10/05 10:52:58;;;;;;;5.70;1.90;;;;;;;23.66;51.61;97847.19;5029491;28;20045;-27
2022/10/05 10:55:33;;;;;;;2.38;1.73;;;;;;;23.74;51.40;97845.53;5029544;28;20489;-27
2022/10/05 10:58:36;;;;;;;1.85;1.33;;;;;;;23.75;51.16;97840.75;5029273;28;20095;-27
2022/10/05 11:01:30;;;;;;;2.00;1.35;;;;;;;23.66;51.49;97847.19;5030227;28;20038;-30
2022/10/05 11:04:11;;;;;;;2.25;1.40;;;;;;;23.68;51.47;97846.72;5029209;28;20803;-27
2022/10/05 11:06:36;;;;;;;3.60;1.60;;;;;;;23.75;51.29;97841.53;5029431;28;20065;-27
2022/10/05 11:09:09;;;;;;;1.70;1.50;;;;;;;23.76;51.04;97842.28;5029300;28;20065;-27
2022/10/05 11:11:59;;;;;;;2.03;1.33;;;;;;;23.72;51.47;97836.97;5012719;28;20141;-28
2022/10/05 11:14:30;;;;;;;2.10;1.70;;;;;;;23.80;50.80;97843.63;5012373;28;20087;-27
2022/10/05 11:17:34;;;;;;;1.50;1.38;;;;;;;23.79;50.95;97839.34;5026729;28;20025;-27
2022/10/05 11:20:24;;;;;;;1.60;1.38;;;;;;;23.80;51.05;97829.78;4997047;28;20152;-27
2022/10/05 11:23:07;;;;;;;2.53;1.42;;;;;;;23.76;51.09;97825.66;5011689;28;20124;-27
2022/10/05 11:25:46;;;;;;;1.80;1.50;;;;;;;23.66;51.55;97822.25;5011858;28;20034;-27
2022/10/05 11:28:42;;;;;;;2.03;1.30;;;;;;;23.69;51.21;97818.53;5011489;28;20042;-28
2022/10/05 11:31:36;;;;;;;2.10;1.48;;;;;;;23.66;51.23;97816.72;5011614;28;20026;-29
2022/10/05 11:34:20;;;;;;;2.20;1.48;;;;;;;23.67;51.43;97815.47;5011520;28;20397;-27
2022/10/05 11:36:54;;;;;;;1.27;1.17;;;;;;;23.67;51.41;97818.25;5011939;28;20064;-29
2022/10/05 11:39:32;;;;;;;2.80;1.60;;;;;;;23.58;51.29;97819.13;5011415;28;20085;-27
2022/10/05 11:42:21;;;;;;;2.97;1.27;;;;;;;23.58;51.48;97812.84;5013550;28;20099;-27
2022/10/05 11:45:05;;;;;;;1.60;1.50;;;;;;;23.62;51.48;97813.38;5013918;28;20367;-28
2022/10/05 11:47:42;;;;;;;2.85;1.40;;;;;;;23.61;51.49;97811.88;5013424;28;20065;-27
2022/10/05 11:50:31;;;;;;;2.10;1.50;;;;;;;23.57;51.23;97816.84;5013644;28;20463;-27
2022/10/05 11:53:22;;;;;;;2.70;1.60;;;;;;;23.55;51.41;97811.00;5013447;28;20036;-27
2022/10/05 11:56:42;;;;;;;1.70;1.40;;;;;;;23.67;51.12;97804.41;5013400;28;20022;-27
2022/10/05 11:59:19;;;;;;;2.63;1.70;;;;;;;23.62;51.51;97808.59;5017122;28;20451;-27
2022/10/05 12:01:48;;;;;;;1.83;1.65;;;;;;;23.58;51.41;97799.75;5013411;28;20092;-30
2022/10/05 12:04:28;;;;;;;1.50;1.33;;;;;;;23.69;50.99;97799.16;5012086;28;20402;-27
2022/10/05 12:07:13;;;;;;;2.20;1.40;;;;;;;23.66;51.12;97797.34;5013444;28;20068;-27
2022/10/05 12:10:13;;;;;;;2.72;1.35;;;;;;;23.71;51.05;97799.44;5013550;28;20471;-27
2022/10/05 12:13:07;;;;;;;2.00;1.58;;;;;;;23.71;50.59;97796.66;5013930;28;20040;-27
2022/10/05 12:15:53;;;;;;;2.00;1.48;;;;;;;23.73;50.79;97801.72;5017111;28;20493;-27
2022/10/05 12:18:32;;;;;;;1.55;1.40;;;;;;;23.77;50.41;97800.25;5017149;28;20038;-28
2022/10/05 12:21:09;;;;;;;2.47;1.42;;;;;;;23.71;50.67;97793.91;5017043;28;20026;-27
2022/10/05 12:24:28;;;;;;;2.53;1.75;;;;;;;23.66;50.78;97800.09;5020728;28;20025;-27
2022/10/05 12:27:04;;;;;;;2.08;1.30;;;;;;;23.73;50.43;97791.41;5034861;28;20160;-27
2022/10/05 12:29:54;;;;;;;2.10;1.83;;;;;;;23.71;50.43;97791.13;5034501;28;20500;-27
2022/10/05 12:32:38;;;;;;;1.58;1.33;;;;;;;23.75;50.29;97775.03;5034753;28;20112;-28
2022/10/05 12:35:26;;;;;;;1.70;1.20;;;;;;;23.70;50.39;97784.06;5034466;28;20496;-27
2022/10/05 12:38:09;;;;;;;1.67;1.42;;;;;;;23.72;49.97;97780.81;5034576;28;20029;-27
2022/10/05 12:40:52;;;;;;;2.03;1.25;;;;;;;23.75;49.84;97790.91;5034572;28;20460;-27
2022/10/05 12:43:49;;;;;;;1.75;1.25;;;;;;;23.71;49.83;97782.06;5034454;28;20021;-27
2022/10/05 12:46:44;;;;;;;2.25;1.42;;;;;;;23.67;49.58;97782.25;5034233;28;20537;-27
2022/10/05 12:49:32;;;;;;;2.28;1.38;;;;;;;23.69;49.81;97768.69;5029353;28;20045;-27